Time;durP1;ratioP1;P1;durP2;ratioP2;P2;SDS_P1;SDS_P2;PMS_P1;PMS_P2;Temp;Humidity;BMP_temperature;BMP_pressure;BME280_temperature;BME280_humidity;BME280_pressure;Samples;Min_cycle;Max_cycle;Signal;HPM_P1;HPM_P2
2023/10/19 00:02:19;;;;;;;14.63;8.30;;;;;;;6.14;100.00;99740.00;4992734;28;20446;-88
2023/10/19 00:04:46;;;;;;;15.32;8.40;;;;;;;5.79;100.00;99728.94;4990357;28;20434;-86
2023/10/19 00:07:15;;;;;;;15.50;8.10;;;;;;;5.92;100.00;99729.47;5004162;28;20421;-86
2023/10/19 00:09:52;;;;;;;18.00;8.27;;;;;;;5.94;100.00;99722.72;5002949;28;20430;-89
2023/10/19 00:12:22;;;;;;;18.75;8.80;;;;;;;5.87;100.00;99733.00;5004184;28;21243;-86
2023/10/19 00:14:55;;;;;;;15.45;8.50;;;;;;;5.94;100.00;99733.53;4990923;28;20426;-88
2023/10/19 00:17:23;;;;;;;15.00;8.40;;;;;;;5.88;100.00;99726.53;5006360;28;20437;-86
2023/10/19 00:20:09;;;;;;;14.73;8.38;;;;;;;5.81;100.00;99717.88;4992607;28;20434;-88
2023/10/19 00:22:36;;;;;;;14.98;7.90;;;;;;;6.12;100.00;99718.69;4997596;28;20425;-87
2023/10/19 00:25:13;;;;;;;14.63;8.48;;;;;;;5.91;100.00;99712.47;4992463;28;20435;-85
2023/10/19 00:27:42;;;;;;;14.32;8.30;;;;;;;5.86;100.00;99704.38;5004903;28;20437;-88
2023/10/19 00:30:12;;;;;;;15.80;8.50;;;;;;;5.88;100.00;99690.59;4986537;28;20424;-88
2023/10/19 00:32:41;;;;;;;13.90;7.63;;;;;;;6.09;100.00;99684.13;5004379;28;20666;-84
2023/10/19 00:35:34;;;;;;;14.80;8.35;;;;;;;5.96;100.00;99684.66;4994461;28;20433;-88
2023/10/19 00:40:47;;;;;;;18.48;8.20;;;;;;;6.15;100.00;99682.19;5007343;28;20422;-84
2023/10/19 00:43:27;;;;;;;15.65;8.60;;;;;;;5.99;100.00;99684.13;4982234;28;20429;-91
2023/10/19 00:45:56;;;;;;;17.27;9.10;;;;;;;5.99;100.00;99675.22;5007434;28;20426;-85
2023/10/19 00:48:32;;;;;;;14.38;7.82;;;;;;;6.05;100.00;99680.34;5007350;28;20423;-87
2023/10/19 00:51:09;;;;;;;14.90;8.80;;;;;;;6.08;100.00;99668.97;4999952;28;20423;-87
2023/10/19 00:53:39;;;;;;;16.88;9.10;;;;;;;5.94;100.00;99666.03;5001762;28;20765;-86
2023/10/19 00:56:10;;;;;;;17.20;9.07;;;;;;;6.07;100.00;99674.66;4987372;28;20431;-87
2023/10/19 00:58:41;;;;;;;15.97;8.77;;;;;;;6.22;100.00;99671.91;5000305;28;20428;-88
2023/10/19 01:01:17;;;;;;;16.07;8.90;;;;;;;5.96;100.00;99677.34;4985319;28;20417;-87
2023/10/19 01:03:45;;;;;;;17.25;9.70;;;;;;;5.91;100.00;99661.19;5006697;28;20433;-89
2023/10/19 01:06:20;;;;;;;16.27;9.40;;;;;;;6.04;100.00;99669.81;5006691;28;20525;-92
2023/10/19 01:08:55;;;;;;;15.95;8.93;;;;;;;6.28;100.00;99659.19;5000357;28;20424;-87
2023/10/19 01:11:28;;;;;;;14.98;8.55;;;;;;;6.11;100.00;99641.41;4988004;28;20441;-86
2023/10/19 01:13:59;;;;;;;17.08;9.15;;;;;;;6.33;100.00;99642.16;5004807;28;20419;-86
2023/10/19 01:16:32;;;;;;;19.35;9.52;;;;;;;6.21;100.00;99643.25;5005659;28;20422;-92
2023/10/19 01:19:06;;;;;;;15.53;8.47;;;;;;;6.29;100.00;99647.31;4986129;28;20494;-88
2023/10/19 01:21:45;;;;;;;16.38;8.77;;;;;;;6.35;100.00;99645.38;4991642;28;20425;-91
2023/10/19 01:24:32;;;;;;;17.23;9.60;;;;;;;6.11;100.00;99630.59;4991898;28;20444;-91
2023/10/19 01:27:00;;;;;;;17.80;9.82;;;;;;;5.99;100.00;99623.91;5001689;28;20924;-89
2023/10/19 01:29:34;;;;;;;19.33;9.38;;;;;;;6.03;100.00;99635.78;4989197;28;20415;-88
2023/10/19 01:32:06;;;;;;;15.13;8.88;;;;;;;6.22;100.00;99622.47;5003072;28;20453;-89
2023/10/19 01:34:40;;;;;;;19.17;10.63;;;;;;;6.05;100.00;99620.09;5006915;28;20907;-87
2023/10/19 01:37:07;;;;;;;17.70;9.93;;;;;;;6.05;100.00;99618.22;4989842;28;20795;-91
2023/10/19 01:39:39;;;;;;;17.40;9.57;;;;;;;6.29;100.00;99617.56;5006700;28;20446;-90
2023/10/19 01:42:08;;;;;;;17.48;9.60;;;;;;;6.17;100.00;99607.09;5001932;28;20423;-87
2023/10/19 01:44:36;;;;;;;17.92;10.02;;;;;;;6.17;100.00;99615.19;4986991;28;20437;-86
2023/10/19 01:47:09;;;;;;;19.10;10.40;;;;;;;6.07;100.00;99605.22;4992607;28;20418;-86
2023/10/19 01:49:37;;;;;;;17.90;10.35;;;;;;;6.38;100.00;99591.59;5008240;28;20434;-85
2023/10/19 01:52:10;;;;;;;17.13;9.73;;;;;;;6.13;100.00;99587.94;4992342;28;20441;-87
2023/10/19 01:54:40;;;;;;;17.35;9.57;;;;;;;6.14;100.00;99577.94;5010742;28;20923;-89
2023/10/19 01:57:08;;;;;;;16.92;8.82;;;;;;;6.39;100.00;99578.88;4979673;28;20438;-84
2023/10/19 01:59:36;;;;;;;18.80;9.52;;;;;;;6.32;100.00;99571.09;5006427;28;21294;-85
2023/10/19 02:02:04;;;;;;;20.73;10.50;;;;;;;6.26;100.00;99580.31;5010202;28;20422;-90
2023/10/19 02:04:34;;;;;;;16.70;9.10;;;;;;;6.34;100.00;99579.72;4986937;28;20422;-85
2023/10/19 02:07:02;;;;;;;18.75;10.55;;;;;;;6.21;100.00;99564.91;4987618;28;20891;-88
2023/10/19 02:09:32;;;;;;;18.85;9.93;;;;;;;6.15;100.00;99559.84;4990441;28;20428;-88
2023/10/19 02:12:07;;;;;;;16.33;9.40;;;;;;;6.29;100.00;99567.03;5005600;28;20938;-91
2023/10/19 02:14:34;;;;;;;17.10;9.80;;;;;;;6.30;100.00;99549.75;4993493;28;20419;-86
2023/10/19 02:17:03;;;;;;;16.80;9.90;;;;;;;6.39;100.00;99546.47;5006878;28;20461;-86
2023/10/19 02:19:36;;;;;;;18.25;9.57;;;;;;;6.44;100.00;99554.53;4995722;28;20414;-86
2023/10/19 02:22:04;;;;;;;17.63;9.82;;;;;;;6.28;100.00;99546.53;4987805;28;20424;-84
2023/10/19 02:24:32;;;;;;;18.20;10.43;;;;;;;6.33;100.00;99540.28;5007096;28;20432;-88
2023/10/19 02:27:01;;;;;;;17.45;10.15;;;;;;;6.30;100.00;99538.16;5007944;28;20418;-92
2023/10/19 02:29:30;;;;;;;20.15;10.25;;;;;;;6.32;100.00;99540.56;4993106;28;20434;-86
2023/10/19 02:32:03;;;;;;;18.45;10.43;;;;;;;6.28;100.00;99540.31;5010549;28;20429;-91
2023/10/19 02:34:35;;;;;;;20.20;9.48;;;;;;;6.43;100.00;99534.00;4993692;28;20418;-93
2023/10/19 02:37:02;;;;;;;17.67;10.38;;;;;;;6.51;100.00;99529.91;5008181;28;20422;-88
2023/10/19 02:39:31;;;;;;;19.15;10.23;;;;;;;6.28;100.00;99526.78;5009530;28;20445;-92
2023/10/19 02:42:01;;;;;;;19.75;10.00;;;;;;;6.44;100.00;99525.59;4991092;28;20430;-86
2023/10/19 02:44:31;;;;;;;17.65;9.82;;;;;;;6.51;100.00;99527.22;5016435;28;20496;-85
2023/10/19 02:46:58;;;;;;;16.30;8.63;;;;;;;6.54;100.00;99519.31;4996450;28;21024;-88
2023/10/19 02:49:31;;;;;;;20.63;9.88;;;;;;;6.30;100.00;99520.03;5001226;28;20418;-85
2023/10/19 02:52:03;;;;;;;18.30;9.87;;;;;;;6.39;100.00;99511.31;4987609;28;20553;-87
2023/10/19 02:54:36;;;;;;;16.88;8.88;;;;;;;6.47;100.00;99513.44;5000917;28;20428;-86
2023/10/19 02:57:13;;;;;;;16.97;9.90;;;;;;;6.41;100.00;99518.06;5008740;28;20768;-83
2023/10/19 02:59:44;;;;;;;18.08;9.68;;;;;;;6.58;100.00;99508.75;4992121;28;20437;-87
2023/10/19 03:02:17;;;;;;;18.63;9.85;;;;;;;6.62;100.00;99507.91;5012065;28;20438;-88
2023/10/19 03:04:50;;;;;;;17.80;9.37;;;;;;;6.53;100.00;99492.56;5016635;28;20510;-88
2023/10/19 03:07:18;;;;;;;17.98;9.68;;;;;;;6.49;100.00;99505.03;4991867;28;20418;-84
2023/10/19 03:09:49;;;;;;;19.35;9.52;;;;;;;6.38;100.00;99501.59;5010207;28;20426;-90
2023/10/19 03:12:17;;;;;;;19.88;10.15;;;;;;;6.51;100.00;99505.59;5011496;28;20423;-86
2023/10/19 03:14:48;;;;;;;16.25;9.63;;;;;;;6.40;100.00;99502.13;5010781;28;20488;-86
2023/10/19 03:17:21;;;;;;;18.30;10.30;;;;;;;6.46;100.00;99501.81;4995789;28;20479;-92
2023/10/19 03:19:55;;;;;;;17.25;8.93;;;;;;;6.56;100.00;99500.94;4995217;28;20422;-84
2023/10/19 03:22:24;;;;;;;16.27;8.93;;;;;;;6.55;100.00;99507.44;4982089;28;20791;-89
2023/10/19 03:25:14;;;;;;;19.65;9.43;;;;;;;6.55;100.00;99493.13;5013050;28;20437;-88
2023/10/19 03:27:44;;;;;;;17.17;9.68;;;;;;;6.52;100.00;99494.47;4985499;28;20423;-92
2023/10/19 03:30:16;;;;;;;18.85;10.27;;;;;;;6.36;100.00;99496.47;4992867;28;20815;-91
2023/10/19 03:32:44;;;;;;;19.45;9.93;;;;;;;6.43;100.00;99494.25;4980382;28;20420;-85
2023/10/19 03:35:21;;;;;;;16.57;9.70;;;;;;;6.45;100.00;99494.81;4977128;28;21188;-92
2023/10/19 03:37:58;;;;;;;17.00;9.32;;;;;;;6.48;100.00;99490.72;5012288;28;20761;-82
2023/10/19 03:40:32;;;;;;;17.93;10.07;;;;;;;6.40;100.00;99481.31;5001626;28;20446;-91
2023/10/19 03:43:14;;;;;;;16.05;9.02;;;;;;;6.40;100.00;99485.94;4999487;28;20410;-90
2023/10/19 03:45:49;;;;;;;18.10;9.73;;;;;;;6.43;100.00;99482.66;4994937;28;20872;-88
2023/10/19 03:48:24;;;;;;;20.50;10.23;;;;;;;6.56;100.00;99490.13;4974969;28;20440;-90
2023/10/19 03:51:02;;;;;;;20.00;10.05;;;;;;;6.49;100.00;99488.81;4999632;28;20423;-91
2023/10/19 03:53:30;;;;;;;17.07;9.10;;;;;;;6.62;100.00;99488.19;5002568;28;20477;-87
2023/10/19 03:55:58;;;;;;;19.20;9.50;;;;;;;6.66;100.00;99477.59;4991656;28;20422;-86
2023/10/19 03:58:29;;;;;;;17.60;9.48;;;;;;;6.55;100.00;99482.31;4987285;28;20429;-86
2023/10/19 04:01:04;;;;;;;17.67;9.82;;;;;;;6.39;100.00;99465.38;4987974;28;20430;-85
2023/10/19 04:03:38;;;;;;;18.38;9.68;;;;;;;6.58;100.00;99465.50;5006233;28;20426;-88
2023/10/19 04:06:12;;;;;;;17.42;9.90;;;;;;;6.53;100.00;99457.44;4992247;28;20453;-87
2023/10/19 04:08:45;;;;;;;20.02;10.25;;;;;;;6.52;100.00;99467.47;4991638;28;20775;-84
2023/10/19 04:11:21;;;;;;;16.55;8.95;;;;;;;6.75;100.00;99463.22;5005487;28;20426;-86
2023/10/19 04:13:55;;;;;;;17.37;9.87;;;;;;;6.55;100.00;99453.38;5009186;28;20414;-85
2023/10/19 04:16:25;;;;;;;18.63;9.48;;;;;;;6.45;100.00;99446.16;4991723;28;20423;-82
2023/10/19 04:18:54;;;;;;;19.20;10.07;;;;;;;6.42;100.00;99460.25;4991687;28;20426;-92
2023/10/19 04:21:22;;;;;;;17.38;9.70;;;;;;;6.63;100.00;99452.75;4990943;28;20427;-86
2023/10/19 04:23:56;;;;;;;18.37;9.50;;;;;;;6.56;100.00;99441.47;5006354;28;20429;-85
2023/10/19 04:26:25;;;;;;;18.85;9.98;;;;;;;6.48;100.00;99458.28;5007949;28;20417;-82
2023/10/19 04:28:55;;;;;;;19.63;9.93;;;;;;;6.54;100.00;99442.84;4987832;28;20446;-86
2023/10/19 04:31:24;;;;;;;21.63;10.75;;;;;;;6.41;100.00;99447.00;5006392;28;20418;-84
2023/10/19 04:33:58;;;;;;;17.75;9.90;;;;;;;6.30;100.00;99438.97;5007413;28;20422;-84
2023/10/19 04:36:31;;;;;;;19.08;10.18;;;;;;;6.39;100.00;99433.75;5005911;28;20414;-88
2023/10/19 04:39:05;;;;;;;22.27;10.52;;;;;;;6.05;100.00;99422.94;4999757;28;20433;-88
2023/10/19 04:41:33;;;;;;;19.05;10.45;;;;;;;6.19;100.00;99428.53;4988396;28;20429;-84
2023/10/19 04:44:00;;;;;;;18.98;10.65;;;;;;;6.11;100.00;99413.72;4988653;28;20437;-82
2023/10/19 04:46:30;;;;;;;24.08;10.90;;;;;;;6.04;100.00;99414.03;4990738;28;20430;-87
2023/10/19 04:48:59;;;;;;;18.73;10.13;;;;;;;6.03;100.00;99412.41;5006766;28;20820;-85
2023/10/19 04:51:28;;;;;;;18.45;9.95;;;;;;;6.00;100.00;99412.97;5007252;28;20779;-89
2023/10/19 04:53:57;;;;;;;19.15;10.02;;;;;;;6.02;100.00;99404.59;5004279;28;20882;-84
2023/10/19 04:56:25;;;;;;;18.52;10.10;;;;;;;5.96;100.00;99396.50;4992136;28;20907;-91
2023/10/19 04:58:53;;;;;;;22.42;11.40;;;;;;;5.87;100.00;99398.19;4990760;28;20798;-87
2023/10/19 05:01:21;;;;;;;19.25;10.57;;;;;;;5.88;100.00;99399.81;4994853;28;20426;-87
2023/10/19 05:03:56;;;;;;;19.42;10.18;;;;;;;5.81;100.00;99387.69;4990466;28;20453;-88
2023/10/19 05:06:24;;;;;;;21.15;11.40;;;;;;;5.81;100.00;99399.28;4991912;28;20423;-84
2023/10/19 05:08:53;;;;;;;21.80;11.37;;;;;;;5.73;100.00;99403.41;5006725;28;20418;-86
2023/10/19 05:11:21;;;;;;;19.08;11.05;;;;;;;5.77;100.00;99393.66;5000836;28;20420;-82
2023/10/19 05:13:49;;;;;;;19.92;11.32;;;;;;;5.71;100.00;99397.47;5005991;28;20446;-82
2023/10/19 05:16:22;;;;;;;21.13;11.35;;;;;;;5.82;100.00;99400.13;4990108;28;20429;-82
2023/10/19 05:18:57;;;;;;;20.38;11.20;;;;;;;5.69;100.00;99406.91;4990250;28;20433;-85
2023/10/19 05:21:26;;;;;;;19.77;11.07;;;;;;;5.66;100.00;99408.28;5008068;28;20423;-86
2023/10/19 05:23:54;;;;;;;22.33;11.88;;;;;;;5.63;100.00;99403.44;4990399;28;20426;-84
2023/10/19 05:26:22;;;;;;;21.08;11.88;;;;;;;5.73;100.00;99397.19;4983633;28;21089;-85
2023/10/19 05:28:50;;;;;;;20.50;11.23;;;;;;;5.67;100.00;99395.63;5003593;28;20434;-85
2023/10/19 05:31:18;;;;;;;22.80;12.00;;;;;;;5.63;100.00;99400.75;4989800;28;20787;-89
2023/10/19 05:33:48;;;;;;;19.97;11.30;;;;;;;5.68;100.00;99400.72;4988569;28;20899;-82
2023/10/19 05:36:18;;;;;;;24.50;11.98;;;;;;;5.68;100.00;99394.53;4992213;28;20763;-84
2023/10/19 05:38:52;;;;;;;20.10;11.15;;;;;;;5.66;100.00;99399.38;5003434;28;20791;-83
2023/10/19 05:41:21;;;;;;;18.58;10.57;;;;;;;5.69;100.00;99396.94;5006237;28;20434;-89
2023/10/19 05:43:49;;;;;;;19.92;11.25;;;;;;;5.69;100.00;99390.72;5005524;28;21082;-83
2023/10/19 05:46:21;;;;;;;17.77;10.43;;;;;;;5.74;100.00;99386.09;4991768;28;20779;-85
2023/10/19 05:48:51;;;;;;;21.25;11.05;;;;;;;5.62;100.00;99386.47;5005547;28;20426;-88
2023/10/19 05:51:21;;;;;;;22.83;11.85;;;;;;;5.74;100.00;99377.22;4991589;28;20402;-83
2023/10/19 05:54:01;;;;;;;21.15;11.40;;;;;;;5.65;100.00;99366.19;5005976;28;20437;-85
2023/10/19 05:56:30;;;;;;;21.77;11.00;;;;;;;5.60;100.00;99377.03;5002518;28;20433;-85
2023/10/19 05:58:58;;;;;;;22.75;11.60;;;;;;;5.60;100.00;99382.41;4991024;28;20422;-86
2023/10/19 06:01:27;;;;;;;18.20;10.98;;;;;;;5.59;100.00;99373.53;4991127;28;20434;-87
2023/10/19 06:03:56;;;;;;;22.08;11.15;;;;;;;5.61;100.00;99378.66;5006546;28;20442;-87
2023/10/19 06:06:26;;;;;;;23.23;12.00;;;;;;;5.64;100.00;99380.78;4989819;28;20950;-87
2023/10/19 06:08:54;;;;;;;20.83;11.60;;;;;;;5.62;100.00;99385.63;5006103;28;20426;-86
2023/10/19 06:11:25;;;;;;;21.15;11.45;;;;;;;5.70;100.00;99378.84;4991815;28;20433;-87
2023/10/19 06:13:53;;;;;;;22.45;11.73;;;;;;;5.59;100.00;99383.50;4989072;28;20943;-87
2023/10/19 06:16:21;;;;;;;24.00;12.15;;;;;;;5.54;100.00;99387.03;5005530;28;20429;-86
2023/10/19 06:18:57;;;;;;;22.15;11.63;;;;;;;5.54;100.00;99389.75;4998406;28;20415;-86
2023/10/19 06:21:34;;;;;;;20.00;11.35;;;;;;;5.83;100.00;99380.09;4998112;28;20430;-86
2023/10/19 06:24:02;;;;;;;20.60;11.57;;;;;;;5.68;100.00;99379.13;5005199;28;20891;-84
2023/10/19 06:26:32;;;;;;;21.85;11.57;;;;;;;5.64;100.00;99372.69;5005271;28;20438;-87
2023/10/19 06:29:06;;;;;;;23.17;12.10;;;;;;;5.76;100.00;99375.84;4989108;28;20429;-89
2023/10/19 06:31:39;;;;;;;21.93;11.67;;;;;;;5.75;100.00;99376.13;5004230;28;20511;-89
2023/10/19 06:34:07;;;;;;;23.75;12.40;;;;;;;5.82;100.00;99386.63;5007546;28;20422;-83
2023/10/19 06:36:38;;;;;;;21.67;11.63;;;;;;;5.70;100.00;99381.56;4992330;28;20433;-83
2023/10/19 06:39:08;;;;;;;21.10;12.30;;;;;;;5.64;100.00;99380.78;4985464;28;20453;-87
2023/10/19 06:41:37;;;;;;;21.55;12.10;;;;;;;5.77;100.00;99377.47;4992867;28;20433;-88
2023/10/19 06:44:08;;;;;;;21.42;12.23;;;;;;;5.71;100.00;99364.28;4987894;28;20430;-93
2023/10/19 06:46:36;;;;;;;21.52;11.60;;;;;;;5.72;100.00;99358.59;4993065;28;20426;-88
2023/10/19 06:49:10;;;;;;;21.77;12.30;;;;;;;5.66;100.00;99369.69;5001298;28;20435;-88
2023/10/19 06:51:39;;;;;;;22.52;12.55;;;;;;;5.71;100.00;99356.97;4987245;28;20432;-91
2023/10/19 06:54:13;;;;;;;23.70;12.85;;;;;;;5.76;100.00;99356.94;4992176;28;20430;-86
2023/10/19 06:56:41;;;;;;;22.88;12.40;;;;;;;5.78;100.00;99346.66;4996510;28;20921;-87
2023/10/19 06:59:09;;;;;;;23.63;11.67;;;;;;;5.78;100.00;99345.88;4993540;28;20425;-85
2023/10/19 07:01:38;;;;;;;19.95;11.45;;;;;;;5.73;100.00;99343.19;4991735;28;20442;-86
2023/10/19 07:04:06;;;;;;;21.48;12.15;;;;;;;5.63;100.00;99346.78;4986991;28;20416;-84
2023/10/19 07:06:41;;;;;;;20.65;12.20;;;;;;;5.61;100.00;99346.25;4992180;28;20437;-89
2023/10/19 07:09:10;;;;;;;24.13;12.68;;;;;;;5.62;100.00;99347.84;4986228;28;20446;-82
2023/10/19 07:11:44;;;;;;;23.17;13.05;;;;;;;5.54;100.00;99357.34;5006392;28;20434;-85
2023/10/19 07:14:17;;;;;;;23.27;12.43;;;;;;;5.59;100.00;99365.44;4982310;28;20429;-87
2023/10/19 07:16:52;;;;;;;23.58;11.95;;;;;;;5.61;100.00;99379.44;4983597;28;20799;-83
2023/10/19 07:19:25;;;;;;;24.60;12.88;;;;;;;5.52;100.00;99370.31;5004787;28;20430;-82
2023/10/19 07:22:04;;;;;;;27.27;14.15;;;;;;;5.57;100.00;99374.88;5006110;28;20433;-84
2023/10/19 07:24:38;;;;;;;26.25;14.05;;;;;;;5.60;100.00;99371.63;4988078;28;20996;-85
2023/10/19 07:27:18;;;;;;;21.57;11.50;;;;;;;5.57;100.00;99372.97;4988001;28;20446;-81
2023/10/19 07:29:47;;;;;;;23.35;12.82;;;;;;;5.51;100.00;99368.72;4991648;28;20462;-83
2023/10/19 07:32:21;;;;;;;21.52;12.05;;;;;;;5.48;100.00;99366.53;4999302;28;20441;-87
2023/10/19 07:34:49;;;;;;;26.63;12.97;;;;;;;5.45;100.00;99365.25;4988151;28;20429;-86
2023/10/19 07:37:21;;;;;;;24.33;13.02;;;;;;;5.46;100.00;99363.34;4989326;28;20430;-87
2023/10/19 07:39:56;;;;;;;21.05;12.35;;;;;;;5.46;100.00;99360.63;5005653;28;20430;-84
2023/10/19 07:42:25;;;;;;;22.27;12.57;;;;;;;5.44;100.00;99360.91;4992165;28;20417;-87
2023/10/19 07:44:54;;;;;;;28.65;14.68;;;;;;;5.49;100.00;99340.38;4985794;28;20442;-86
2023/10/19 07:47:35;;;;;;;23.77;13.50;;;;;;;5.56;100.00;99340.88;5003798;28;20896;-83
2023/10/19 07:58:04;;;;;;;22.98;12.25;;;;;;;5.50;100.00;99369.78;4935041;28;20915;-86
2023/10/19 08:04:56;;;;;;;24.13;13.30;;;;;;;5.41;100.00;99341.78;4998639;23;20447;-90
2023/10/19 08:07:28;;;;;;;27.42;13.80;;;;;;;5.37;100.00;99333.44;4979058;28;20431;-89
2023/10/19 08:10:02;;;;;;;23.60;13.50;;;;;;;5.43;100.00;99326.91;4974422;28;20445;-91
2023/10/19 08:12:33;;;;;;;26.80;14.20;;;;;;;5.38;100.00;99315.34;4969315;28;22223;-87
2023/10/19 08:15:06;;;;;;;24.15;13.48;;;;;;;5.42;100.00;99338.78;4965306;28;20433;-87
2023/10/19 08:17:40;;;;;;;24.67;11.98;;;;;;;5.45;100.00;99323.94;4958940;28;20434;-89
2023/10/19 08:20:15;;;;;;;23.90;13.05;;;;;;;5.51;100.00;99325.53;4957576;28;20442;-88
2023/10/19 08:22:46;;;;;;;24.55;12.90;;;;;;;5.55;100.00;99339.25;4953097;28;21121;-88
2023/10/19 08:25:15;;;;;;;25.45;13.18;;;;;;;5.60;100.00;99323.84;4960272;28;20898;-90
2023/10/19 08:27:56;;;;;;;;;;;;;;;;;;;;;
2023/10/19 08:31:02;;;;;;;24.42;13.80;;;;;;;5.47;100.00;99334.44;4959789;28;20450;-90
2023/10/19 08:33:33;;;;;;;23.00;13.60;;;;;;;5.49;100.00;99322.28;4954903;28;20446;-90
2023/10/19 08:36:02;;;;;;;24.73;13.25;;;;;;;5.41;100.00;99315.63;4964184;28;20433;-92
2023/10/19 08:38:33;;;;;;;23.50;13.43;;;;;;;5.31;100.00;99291.38;4958122;28;20434;-88
2023/10/19 08:41:03;;;;;;;22.92;13.00;;;;;;;5.59;100.00;99332.22;4949768;28;20919;-90
2023/10/19 08:43:33;;;;;;;26.02;12.85;;;;;;;5.46;100.00;99317.47;4955012;28;20777;-89
2023/10/19 08:46:03;;;;;;;23.02;13.40;;;;;;;5.64;100.00;99337.59;4955402;28;20434;-91
2023/10/19 08:48:37;;;;;;;24.73;13.88;;;;;;;5.61;100.00;99330.06;4947257;28;20434;-90
2023/10/19 08:51:19;;;;;;;25.30;13.05;;;;;;;5.45;100.00;99281.59;4954962;28;20430;-88
2023/10/19 08:53:55;;;;;;;21.25;12.85;;;;;;;5.58;100.00;99312.53;4971361;28;20430;-92
2023/10/19 08:56:33;;;;;;;22.63;11.80;;;;;;;5.47;100.00;99299.38;4962086;28;20438;-89
2023/10/19 08:59:02;;;;;;;22.23;12.50;;;;;;;5.53;100.00;99307.16;4951909;28;20434;-87
2023/10/19 09:01:37;;;;;;;22.10;12.73;;;;;;;5.65;100.00;99319.50;4954469;28;20438;-90
2023/10/19 09:04:07;;;;;;;22.80;12.05;;;;;;;5.61;100.00;99320.06;4958627;28;21706;-89
2023/10/19 09:06:41;;;;;;;25.25;13.25;;;;;;;5.44;100.00;99314.22;4969324;28;20434;-88
2023/10/19 09:09:16;;;;;;;22.65;12.98;;;;;;;5.58;100.00;99330.63;4972602;28;20432;-88
2023/10/19 09:11:46;;;;;;;22.83;11.67;;;;;;;5.58;100.00;99319.84;4969251;28;20432;-87
2023/10/19 09:14:33;;;;;;;21.92;12.07;;;;;;;5.39;100.00;99301.59;4973059;28;20591;-87
2023/10/19 09:17:04;;;;;;;22.77;13.07;;;;;;;5.58;100.00;99344.13;4967193;28;20433;-87
2023/10/19 09:19:40;;;;;;;24.95;13.15;;;;;;;5.32;100.00;99286.78;4962820;28;25009;-87
2023/10/19 09:22:18;;;;;;;21.98;12.57;;;;;;;5.51;100.00;99330.94;4970755;28;21372;-86
2023/10/19 09:24:47;;;;;;;22.30;12.52;;;;;;;5.52;100.00;99305.53;4975964;28;20431;-88
2023/10/19 09:27:21;;;;;;;22.93;12.87;;;;;;;5.49;100.00;99321.50;4974700;28;20792;-87
2023/10/19 09:29:55;;;;;;;24.52;13.48;;;;;;;5.57;100.00;99346.00;4984541;28;20433;-87
2023/10/19 09:32:32;;;;;;;22.60;13.02;;;;;;;5.57;100.00;99358.69;4974048;28;20439;-86
2023/10/19 09:35:02;;;;;;;24.35;12.82;;;;;;;5.51;100.00;99344.44;4982017;28;20444;-86
2023/10/19 09:37:31;;;;;;;25.42;12.82;;;;;;;5.47;100.00;99339.84;4973225;28;20432;-86
2023/10/19 09:40:11;;;;;;;22.17;13.05;;;;;;;5.49;100.00;99332.28;4963299;28;20433;-86
2023/10/19 09:42:54;;;;;;;25.57;12.97;;;;;;;5.53;100.00;99346.84;4965363;28;20432;-86
2023/10/19 09:45:26;;;;;;;24.50;13.10;;;;;;;5.58;100.00;99350.31;4972293;28;20440;-86
2023/10/19 09:47:56;;;;;;;25.57;13.87;;;;;;;5.36;100.00;99310.25;4977067;28;20428;-86
2023/10/19 09:50:32;;;;;;;24.40;13.02;;;;;;;5.47;100.00;99318.25;4972707;28;20417;-90
2023/10/19 09:53:02;;;;;;;24.80;13.02;;;;;;;5.36;100.00;99304.84;4970430;28;20424;-87
2023/10/19 09:55:38;;;;;;;23.95;12.68;;;;;;;5.45;100.00;99323.94;4972595;28;20795;-87
2023/10/19 09:58:14;;;;;;;24.10;13.38;;;;;;;5.45;100.00;99329.34;4966616;28;20440;-87
2023/10/19 10:00:50;;;;;;;23.70;13.15;;;;;;;5.60;100.00;99340.03;4970194;28;20868;-86
2023/10/19 10:03:49;;;;;;;24.00;13.07;;;;;;;5.51;100.00;99343.59;4969889;28;20505;-86
2023/10/19 10:06:30;;;;;;;22.50;13.13;;;;;;;5.64;100.00;99348.38;4968283;28;20735;-86
2023/10/19 10:09:04;;;;;;;26.05;14.02;;;;;;;5.55;100.00;99337.38;4978508;28;20483;-87
2023/10/19 10:11:34;;;;;;;23.05;13.63;;;;;;;5.43;100.00;99309.94;4977947;28;20980;-87
2023/10/19 10:14:24;;;;;;;25.17;13.77;;;;;;;5.66;100.00;99335.41;4973673;28;20471;-88
2023/10/19 10:17:03;;;;;;;25.00;13.40;;;;;;;5.66;100.00;99331.91;4977361;28;20539;-86
2023/10/19 10:19:33;;;;;;;26.00;14.43;;;;;;;5.35;100.00;99284.34;4988484;28;21011;-87
2023/10/19 10:22:11;;;;;;;18.80;10.57;;;;;;;5.52;100.00;99318.25;4999576;28;20663;-89
2023/10/19 10:24:46;;;;;;;24.70;13.30;;;;;;;5.44;100.00;99312.34;4980593;28;20432;-86
2023/10/19 10:27:19;;;;;;;25.60;13.55;;;;;;;5.58;100.00;99342.22;4983246;28;20443;-85
2023/10/19 10:29:59;;;;;;;24.60;13.30;;;;;;;5.57;100.00;99342.50;4973800;28;20969;-88
2023/10/19 10:32:44;;;;;;;28.20;13.95;;;;;;;5.41;100.00;99299.44;4973335;28;20441;-86
2023/10/19 10:35:55;;;;;;;25.05;13.82;;;;;;;5.52;100.00;99280.47;4985721;28;21072;-89
2023/10/19 10:38:34;;;;;;;25.67;14.05;;;;;;;5.33;100.00;99264.94;4983789;28;20440;-88
2023/10/19 10:41:10;;;;;;;25.58;14.40;;;;;;;5.54;100.00;99286.41;4980419;28;20440;-86
2023/10/19 10:43:53;;;;;;;26.65;14.68;;;;;;;5.52;100.00;99286.66;4975641;28;21911;-88
2023/10/19 10:46:28;;;;;;;23.58;14.43;;;;;;;5.74;100.00;99313.22;4972875;28;20449;-86
2023/10/19 10:49:02;;;;;;;23.42;13.90;;;;;;;5.74;100.00;99304.31;4982465;28;20429;-88
2023/10/19 10:51:32;;;;;;;23.48;14.20;;;;;;;5.78;100.00;99303.47;4951319;28;20448;-87
2023/10/19 10:54:00;;;;;;;24.77;14.07;;;;;;;5.70;100.00;99301.38;4995508;28;20429;-87
2023/10/19 10:56:41;;;;;;;24.20;14.43;;;;;;;5.63;100.00;99284.69;4975154;28;20472;-86
2023/10/19 10:59:14;;;;;;;27.90;14.82;;;;;;;5.73;100.00;99305.41;4984642;28;20432;-87
2023/10/19 11:01:43;;;;;;;26.50;14.75;;;;;;;5.69;100.00;99288.16;4972408;28;20444;-88
2023/10/19 11:04:14;;;;;;;25.65;15.13;;;;;;;5.77;100.00;99296.47;4969083;28;20452;-89
2023/10/19 11:06:51;;;;;;;25.80;14.97;;;;;;;5.82;100.00;99295.63;4980202;28;20815;-85
2023/10/19 11:09:19;;;;;;;29.23;15.45;;;;;;;5.53;100.00;99263.19;4978192;28;20424;-86
2023/10/19 11:11:53;;;;;;;30.23;16.13;;;;;;;5.72;100.00;99296.50;4972408;28;20476;-87
2023/10/19 11:14:24;;;;;;;27.65;15.40;;;;;;;5.84;100.00;99295.34;4965331;28;20435;-87
2023/10/19 11:16:54;;;;;;;24.10;14.00;;;;;;;5.74;100.00;99283.53;4976544;28;20433;-90
2023/10/19 11:19:39;;;;;;;28.85;15.23;;;;;;;5.77;100.00;99285.69;4978298;28;20451;-85
2023/10/19 11:22:11;;;;;;;25.75;13.98;;;;;;;5.84;100.00;99298.03;4976954;28;20986;-86
2023/10/19 11:24:44;;;;;;;27.42;14.25;;;;;;;5.79;100.00;99288.88;4987563;28;20452;-86
2023/10/19 11:27:26;;;;;;;24.85;14.32;;;;;;;5.69;100.00;99272.78;4972390;28;20436;-86
2023/10/19 11:30:04;;;;;;;25.70;14.48;;;;;;;5.87;100.00;99297.47;4970987;28;20432;-86
2023/10/19 11:32:38;;;;;;;24.50;13.90;;;;;;;5.78;100.00;99292.66;4969709;28;20440;-86
2023/10/19 11:35:11;;;;;;;26.83;14.95;;;;;;;5.89;100.00;99289.91;4971050;28;20433;-87
2023/10/19 11:37:48;;;;;;;24.67;13.73;;;;;;;5.86;100.00;99293.97;4974141;28;20531;-86
2023/10/19 11:40:22;;;;;;;27.58;14.40;;;;;;;5.82;100.00;99290.22;4980710;28;20437;-87
2023/10/19 11:42:51;;;;;;;25.37;13.73;;;;;;;5.80;100.00;99287.00;4972012;28;21561;-85
2023/10/19 11:45:24;;;;;;;25.25;14.65;;;;;;;5.84;100.00;99279.97;4970227;28;21598;-88
2023/10/19 11:47:54;;;;;;;27.98;14.80;;;;;;;5.83;100.00;99286.44;4973639;28;20440;-86
2023/10/19 11:50:24;;;;;;;27.55;14.50;;;;;;;5.74;100.00;99271.94;4963289;28;20433;-88
2023/10/19 11:52:53;;;;;;;24.88;13.48;;;;;;;5.89;100.00;99255.59;4982008;28;20503;-85
2023/10/19 11:55:26;;;;;;;26.40;14.75;;;;;;;5.98;100.00;99276.63;4975231;28;20437;-86
2023/10/19 11:57:55;;;;;;;27.55;14.75;;;;;;;5.98;100.00;99255.84;4975501;28;20436;-86
2023/10/19 12:00:24;;;;;;;26.13;14.67;;;;;;;5.95;100.00;99248.25;4979636;28;20432;-88
2023/10/19 12:02:58;;;;;;;28.77;15.05;;;;;;;6.07;100.00;99247.91;4991872;28;20803;-91